Strona główna
METAR-TAF:

METAR-TAF

Lotnisko :

Port lotniczy Sam Ratulangi

Manado, Indonezja

Szerokość geograficzna: 01-32N, Długość geograficzna: 124-55E, wysokość: 80 m

Aktualna obserwacja pogody

Raport powstał 34 minut temu, godzina 10:30 UTC
Wiatr 2 kt z kierunków zmiennych
Temperatura 27°C
Wilgotność 84%
Ciśnienie 1010 hPa
Widzialność 10 km lub więcej
Rozproszone chmury na wysokości 2200 ft

METAR: WAMM 181030Z VRB02KT 9999 SCT022 27/24 Q1010 NOSIG

czas: 18:04 (11:04 UTC)

Prognoza

Raport powstał 6 godziny i 4 minut temu, godzina 05:00 UTC
Prognoza ważna od 18 godzina 06 UTC do 19 godzina 12 UTC
Wiatr 7 kt od północno-północny zachód
Widzialność 10 km lub więcej
Rozproszone chmury na wysokości 2200 ft
Stopniowe zmiany
od 18 godzina 11 UTC do 18 godzina 12 UTC
Wiatr 4 kt od południowo-południowy wschód
Mało chmury na wysokości 2200 ft
Stopniowe zmiany
od 18 godzina 23 UTC do 19 godzina 01 UTC
Wiatr 5 kt od zachód

TAF: WAMM 180500Z 1806/1912 33007KT 9999 SCT022 BECMG 1811/1812 15004KT FEW022 BECMG 1823/1901 27005KT

Obserwacja i prognoza pogody dla ponad 4000 lotnisk (raport METAR i TAF).

Dostępne stacje oznaczono żółtymi i czerwonymi punktami na mapie.

Najedź kursorem aby zobaczyć nazwę stacji.

Kliknij aby zobaczyć obserwacje i prognozy pogody.

Aby zmienić mapę: kliknij na zielony przycisk z czarnym krzyżykiem, aby powiększyć; na zielony przycisk z myślnikiem, aby pomniejszyć; na zielone strzałki, aby przejść do map sąsiednich.


METAR-TAF: